createdAt,value
2022-10-01T00:02:41.328Z,33.00
2022-10-01T00:07:52.376Z,31.60
2022-10-01T00:12:57.059Z,33.70
2022-10-01T00:18:06.450Z,33.10
2022-10-01T00:23:24.883Z,32.80
2022-10-01T00:33:49.927Z,35.10
2022-10-01T00:38:53.787Z,36.10
2022-10-01T00:44:00.550Z,39.60
2022-10-01T00:49:09.846Z,38.70
2022-10-01T00:54:23.386Z,37.90
2022-10-01T00:59:29.004Z,39.60
2022-10-01T01:04:33.352Z,42.20
2022-10-01T01:09:39.340Z,39.90
2022-10-01T01:15:10.909Z,38.40
2022-10-01T01:20:29.253Z,37.90
2022-10-01T01:25:50.374Z,39.10
2022-10-01T01:31:02.018Z,37.40
2022-10-01T01:36:10.285Z,35.50
2022-10-01T01:41:15.884Z,36.70
2022-10-01T01:46:20.424Z,36.80
2022-10-01T01:52:13.905Z,34.60
2022-10-01T01:57:20.782Z,35.50
2022-10-01T02:02:27.967Z,34.80
2022-10-01T02:07:35.603Z,34.00
2022-10-01T02:13:04.853Z,32.50
2022-10-01T02:18:16.870Z,32.40
2022-10-01T02:23:25.651Z,33.70
2022-10-01T02:28:31.692Z,34.90
2022-10-01T02:33:37.721Z,38.30
2022-10-01T02:38:42.855Z,41.30
2022-10-01T02:43:55.150Z,41.80
2022-10-01T02:49:00.384Z,40.20
2022-10-01T02:54:14.724Z,39.10
2022-10-01T02:59:18.160Z,37.70
2022-10-01T03:04:22.329Z,37.50
2022-10-01T03:09:27.205Z,36.90
2022-10-01T03:14:30.469Z,35.90
2022-10-01T03:19:34.414Z,34.60
2022-10-01T03:24:38.444Z,35.00
2022-10-01T03:29:41.722Z,36.30
2022-10-01T03:34:45.262Z,36.20
2022-10-01T03:39:48.706Z,35.20
2022-10-01T03:44:52.443Z,33.70
2022-10-01T03:49:55.791Z,34.70
2022-10-01T03:55:01.488Z,32.60
2022-10-01T04:00:05.228Z,33.00
2022-10-01T04:05:15.884Z,30.70
2022-10-01T04:10:19.445Z,30.10
2022-10-01T04:15:23.547Z,31.60
2022-10-01T04:20:26.914Z,30.00
2022-10-01T04:25:30.809Z,32.40
2022-10-01T04:30:38.483Z,32.20
2022-10-01T04:35:58.250Z,30.20
2022-10-01T04:41:01.491Z,30.60
2022-10-01T04:46:05.176Z,29.40
2022-10-01T04:51:08.713Z,30.00
2022-10-01T04:56:12.001Z,30.60
2022-10-01T05:01:20.438Z,31.60
2022-10-01T05:06:23.763Z,28.30
2022-10-01T05:11:27.135Z,28.30
2022-10-01T05:16:30.605Z,28.20
2022-10-01T05:21:36.905Z,27.60
2022-10-01T05:26:40.440Z,25.80
2022-10-01T05:31:46.681Z,26.90
2022-10-01T05:36:59.949Z,27.40
2022-10-01T05:42:07.623Z,28.40
2022-10-01T05:47:11.361Z,25.60
2022-10-01T05:52:16.867Z,25.00
2022-10-01T05:57:24.426Z,23.40
2022-10-01T06:02:29.170Z,27.20
2022-10-01T06:07:35.174Z,23.00
2022-10-01T06:12:42.486Z,29.30
2022-10-01T06:17:52.958Z,24.80
2022-10-01T06:22:57.785Z,22.50
2022-10-01T06:28:03.102Z,24.10
2022-10-01T06:33:17.413Z,21.80
2022-10-01T06:38:22.674Z,20.30
2022-10-01T06:43:29.157Z,19.50
2022-10-01T06:48:32.701Z,19.60
2022-10-01T06:53:38.619Z,23.10
2022-10-01T06:58:42.832Z,20.70
2022-10-01T07:03:46.959Z,19.80
2022-10-01T07:08:50.643Z,22.20
2022-10-01T07:13:54.849Z,20.80
2022-10-01T07:18:58.408Z,20.70
2022-10-01T07:24:02.871Z,19.50
2022-10-01T07:29:07.193Z,18.00
2022-10-01T07:34:10.458Z,20.90
2022-10-01T07:39:13.926Z,20.70
2022-10-01T07:44:20.355Z,19.90
2022-10-01T07:49:27.075Z,20.90
2022-10-01T07:54:33.107Z,22.80
2022-10-01T07:59:36.994Z,23.50
2022-10-01T08:05:03.099Z,21.30
2022-10-01T08:10:12.208Z,22.90
2022-10-01T08:15:21.191Z,22.60
2022-10-01T08:20:28.964Z,23.00
2022-10-01T08:25:35.760Z,23.70
2022-10-01T08:30:40.397Z,24.70
2022-10-01T08:35:43.981Z,23.50
2022-10-01T08:40:51.685Z,23.10
2022-10-01T08:46:00.181Z,21.40
2022-10-01T08:51:31.519Z,20.30
2022-10-01T08:56:37.218Z,19.30
2022-10-01T09:01:41.490Z,18.80
2022-10-01T09:06:48.057Z,21.70
2022-10-01T09:12:36.432Z,19.30
2022-10-01T09:18:26.054Z,18.70
2022-10-01T09:23:32.383Z,17.80
2022-10-01T09:28:39.169Z,16.10
2022-10-01T09:33:46.898Z,13.70
2022-10-01T09:39:27.429Z,12.00
2022-10-01T09:44:31.938Z,11.50
2022-10-01T09:49:44.233Z,12.10
2022-10-01T10:00:11.287Z,9.80
2022-10-01T10:05:16.471Z,11.10
2022-10-01T10:10:35.859Z,9.80
2022-10-01T10:15:49.913Z,8.50
2022-10-01T10:20:54.409Z,8.00
2022-10-01T10:26:06.464Z,7.70
2022-10-01T10:36:38.814Z,6.50
2022-10-01T10:41:45.170Z,6.50
2022-10-01T10:46:49.869Z,6.60
2022-10-01T10:51:55.186Z,6.10
2022-10-01T10:57:24.415Z,6.50
2022-10-01T11:02:30.866Z,5.40
2022-10-01T11:07:37.679Z,6.10
2022-10-01T11:13:11.353Z,6.50
2022-10-01T11:18:44.551Z,6.10
2022-10-01T11:24:10.792Z,5.90
2022-10-01T11:29:25.861Z,5.10
2022-10-01T11:34:43.453Z,5.60
2022-10-01T11:39:52.229Z,5.70
2022-10-01T11:45:03.551Z,5.30
2022-10-01T11:50:19.153Z,4.60
2022-10-01T11:56:24.104Z,2.80
2022-10-01T12:01:58.550Z,2.50
2022-10-01T12:07:37.209Z,2.10
2022-10-01T12:13:30.845Z,1.50
2022-10-01T12:19:07.887Z,1.70
2022-10-01T12:24:14.797Z,1.70
2022-10-01T12:29:50.687Z,1.70
2022-10-01T12:35:31.640Z,1.40
2022-10-01T12:40:57.229Z,1.90
2022-10-01T12:46:45.569Z,1.40
2022-10-01T12:52:06.699Z,1.60
2022-10-01T12:57:23.320Z,2.70
2022-10-01T13:02:55.963Z,2.20
2022-10-01T13:08:19.462Z,1.50
2022-10-01T13:13:27.094Z,1.60
2022-10-01T13:18:38.701Z,1.50
2022-10-01T13:24:03.742Z,1.40
2022-10-01T13:29:13.163Z,1.70
2022-10-01T13:34:37.191Z,1.50
2022-10-01T13:39:43.766Z,1.40
2022-10-01T13:44:53.392Z,1.60
2022-10-01T13:50:25.430Z,1.80
2022-10-01T13:55:31.252Z,1.60
2022-10-01T14:00:58.081Z,1.60
2022-10-01T14:06:03.897Z,1.30
2022-10-01T14:11:31.504Z,1.60
2022-10-01T14:16:44.543Z,1.50
2022-10-01T14:22:25.667Z,1.80
2022-10-01T14:27:57.303Z,1.60
2022-10-01T14:33:28.810Z,2.30
2022-10-01T14:38:35.076Z,1.70
2022-10-01T14:43:39.948Z,1.80
2022-10-01T14:48:59.172Z,1.60
2022-10-01T14:54:03.901Z,2.20
2022-10-01T14:59:09.027Z,2.80
2022-10-01T15:04:20.741Z,2.00
2022-10-01T15:09:25.131Z,2.90
2022-10-01T15:14:29.356Z,2.00
2022-10-01T15:19:38.148Z,1.70
2022-10-01T15:24:46.944Z,1.90
2022-10-01T15:29:57.400Z,2.40
2022-10-01T15:35:03.730Z,2.30
2022-10-01T15:40:25.477Z,1.90
2022-10-01T15:46:15.266Z,2.50
2022-10-01T15:51:28.615Z,2.30
2022-10-01T15:56:37.064Z,3.40
2022-10-01T16:01:47.769Z,3.10
2022-10-01T16:07:01.721Z,3.50
2022-10-01T16:12:11.950Z,3.90
2022-10-01T16:17:16.993Z,2.00
2022-10-01T16:22:30.854Z,2.20
2022-10-01T16:27:53.582Z,1.90
2022-10-01T16:33:06.343Z,1.70
2022-10-01T16:38:13.011Z,1.80
2022-10-01T16:43:22.780Z,1.70
2022-10-01T16:48:26.376Z,1.70
2022-10-01T16:53:44.234Z,1.60
2022-10-01T16:59:00.548Z,1.80
2022-10-01T17:04:03.968Z,1.80
2022-10-01T17:09:08.066Z,1.80
2022-10-01T17:14:17.630Z,2.80
2022-10-01T17:19:22.264Z,4.00
2022-10-01T17:24:25.735Z,3.40
2022-10-01T17:29:31.224Z,2.40
2022-10-01T17:34:41.640Z,2.60
2022-10-01T17:39:45.452Z,3.20
2022-10-01T17:44:51.774Z,4.10
2022-10-01T17:49:58.253Z,4.60
2022-10-01T17:55:01.872Z,4.20
2022-10-01T18:00:07.178Z,3.60
2022-10-01T18:05:18.052Z,4.00
2022-10-01T18:10:21.898Z,4.70
2022-10-01T18:15:30.095Z,4.10
2022-10-01T18:20:41.632Z,3.30
2022-10-01T18:26:01.743Z,3.40
2022-10-01T18:31:35.122Z,5.10
2022-10-01T18:43:08.023Z,4.40
2022-10-01T18:48:38.375Z,3.80
2022-10-01T18:54:21.614Z,4.30
2022-10-01T19:00:09.731Z,3.20
2022-10-01T19:05:51.932Z,3.40
2022-10-01T19:12:00.930Z,4.10
2022-10-01T19:17:41.745Z,4.40
2022-10-01T19:23:11.685Z,4.50
2022-10-01T19:28:55.484Z,5.70
2022-10-01T19:34:18.996Z,5.00
2022-10-01T19:39:41.580Z,5.30
2022-10-01T19:44:56.993Z,5.90
2022-10-01T19:50:07.890Z,6.70
2022-10-01T19:55:18.946Z,5.50
2022-10-01T20:00:24.188Z,4.90
2022-10-01T20:05:55.322Z,4.40
2022-10-01T20:11:10.795Z,4.20
2022-10-01T20:16:38.276Z,4.30
2022-10-01T20:22:14.307Z,4.00
2022-10-01T20:28:10.518Z,4.00
2022-10-01T20:33:43.472Z,5.30
2022-10-01T20:39:25.527Z,4.80
2022-10-01T20:44:35.929Z,3.90
2022-10-01T20:50:12.720Z,3.60
2022-10-01T20:55:29.555Z,4.10
2022-10-01T21:00:49.953Z,4.30
2022-10-01T21:06:24.890Z,3.90
2022-10-01T21:11:45.429Z,3.90
2022-10-01T21:17:02.307Z,20.60
2022-10-01T21:22:52.971Z,6.10
2022-10-01T21:28:02.009Z,4.60
2022-10-01T21:33:44.576Z,4.40
2022-10-01T21:38:57.504Z,4.00
2022-10-01T21:44:10.833Z,4.20
2022-10-01T21:49:46.087Z,4.30
2022-10-01T21:55:37.696Z,4.40
2022-10-01T22:00:56.450Z,4.00
2022-10-01T22:06:18.762Z,3.90
2022-10-01T22:11:28.975Z,4.20
2022-10-01T22:16:44.280Z,3.50
2022-10-01T22:21:59.378Z,3.80
2022-10-01T22:27:16.604Z,4.30
2022-10-01T22:32:23.689Z,3.00
2022-10-01T22:37:54.688Z,3.30
2022-10-01T22:43:08.181Z,2.80
2022-10-01T22:48:18.350Z,2.70
2022-10-01T22:53:52.014Z,2.80
2022-10-01T22:59:16.811Z,2.90
2022-10-01T23:04:27.242Z,2.20
2022-10-01T23:09:53.661Z,2.10
2022-10-01T23:15:08.061Z,1.80
2022-10-01T23:20:24.335Z,1.80
2022-10-01T23:25:48.595Z,1.90
2022-10-01T23:31:26.018Z,1.40
2022-10-01T23:37:02.659Z,1.30
2022-10-01T23:42:28.807Z,1.90
2022-10-01T23:47:55.585Z,1.50
2022-10-01T23:53:10.680Z,1.30
2022-10-01T23:58:15.428Z,1.40
